TCM weather

McChord Air Force Base
Tacoma, Washington, United States

Public forecast

Using degrees Fahrenheit for public forecast. Weather courtesy of forecast.io.

METAR (pilot weather report)

Retrieved 2019/04/23 22:18 UTC (0 seconds ago):

KTCM 232218Z AUTO 27010G15KT 10SM BKN027 BKN033 OVC048 15/12 A3020 RMK AO2 CIG 027V035 BKN027 V SCT SLP231 RVRNO CHINO RWY34 $

TAF (pilot weather forecast)

Retrieved 2019/04/23 21:54 UTC (8 minutes ago):

TAF TAF KTCM 232105Z 2321/2503 23012KT 9999 BKN025 BKN030 QNH3018INS BECMG 2405/2406 17009KT 9999 BKN040 QNH3020INS BECMG 2411/2412 20009KT 9999 SCT025 SCT250 QNH3025INS TX15/2322Z TN06/2413Z